Guilford Courthouse National, North Carolina
Current Conditions -  °F | °C
As of 1:54 AM on Friday 31 Oct 2014 (Local Time) from KGSO Reporting Station
Few Clouds Few Clouds  
Wind Chill: 42°   Ceiling: Unl
Heat Index: 45°   Visibility: 10mi
Dew Point: 39°   Wind: 6mph
Humidity: 80%   Direction: 20°NNE
Pressure: 29.99"   Gusts: NA
Location:  36.1026°N, 79.8146°W
Report Text: KGSO 310554Z 02005KT 10SM FEW060 07/04 A2999 RMK AO2 SLP153 T00720039 10128 20072 58003
Loading
Personal Weather Stations






























Interactive Weather Map
Tropical Storm Tracking
New forecast layout! Learn more

10-Day Weather Forecast

Advertisements
Track Severe Weather on mobile